sensor_id;sensor_type;location;lat;lon;timestamp;pressure;altitude;pressure_sealevel;temperature;humidity
13695;BME280;6919;52.344;14.518;2023-03-21T00:01:14;100773.47;;;9.00;100.00
13695;BME280;6919;52.344;14.518;2023-03-21T00:03:42;100774.59;;;8.98;100.00
13695;BME280;6919;52.344;14.518;2023-03-21T00:06:13;100772.06;;;8.96;100.00
13695;BME280;6919;52.344;14.518;2023-03-21T00:08:41;100777.69;;;8.93;100.00
13695;BME280;6919;52.344;14.518;2023-03-21T00:11:12;100776.00;;;8.92;100.00
13695;BME280;6919;52.344;14.518;2023-03-21T00:13:41;100774.00;;;8.85;100.00
13695;BME280;6919;52.344;14.518;2023-03-21T00:16:12;100777.53;;;8.85;100.00
13695;BME280;6919;52.344;14.518;2023-03-21T00:18:53;100776.00;;;8.83;100.00
13695;BME280;6919;52.344;14.518;2023-03-21T00:21:24;100764.84;;;8.78;100.00
13695;BME280;6919;52.344;14.518;2023-03-21T00:24:14;100770.34;;;8.86;100.00
13695;BME280;6919;52.344;14.518;2023-03-21T00:26:44;100764.16;;;8.95;100.00
13695;BME280;6919;52.344;14.518;2023-03-21T00:29:12;100760.38;;;8.88;100.00
13695;BME280;6919;52.344;14.518;2023-03-21T00:31:40;100765.16;;;8.94;100.00
13695;BME280;6919;52.344;14.518;2023-03-21T00:34:08;100755.00;;;9.07;100.00
13695;BME280;6919;52.344;14.518;2023-03-21T00:36:42;100767.38;;;8.89;100.00
13695;BME280;6919;52.344;14.518;2023-03-21T00:39:10;100762.91;;;9.18;100.00
13695;BME280;6919;52.344;14.518;2023-03-21T00:41:40;100760.09;;;8.91;100.00
13695;BME280;6919;52.344;14.518;2023-03-21T00:44:11;100757.41;;;8.91;100.00
13695;BME280;6919;52.344;14.518;2023-03-21T00:46:42;100754.31;;;8.95;100.00
13695;BME280;6919;52.344;14.518;2023-03-21T00:49:26;100759.09;;;9.01;100.00
13695;BME280;6919;52.344;14.518;2023-03-21T00:51:59;100752.19;;;8.89;100.00
13695;BME280;6919;52.344;14.518;2023-03-21T00:54:42;100764.56;;;8.71;100.00
13695;BME280;6919;52.344;14.518;2023-03-21T00:57:11;100760.75;;;8.74;100.00
13695;BME280;6919;52.344;14.518;2023-03-21T00:59:40;100761.16;;;8.69;100.00
13695;BME280;6919;52.344;14.518;2023-03-21T01:02:08;100760.16;;;8.61;100.00
13695;BME280;6919;52.344;14.518;2023-03-21T01:04:40;100765.25;;;8.64;100.00
13695;BME280;6919;52.344;14.518;2023-03-21T01:07:09;100763.03;;;8.69;100.00
13695;BME280;6919;52.344;14.518;2023-03-21T01:09:37;100760.22;;;8.89;100.00
13695;BME280;6919;52.344;14.518;2023-03-21T01:12:06;100759.09;;;8.73;100.00
13695;BME280;6919;52.344;14.518;2023-03-21T01:14:34;100757.41;;;8.72;100.00
13695;BME280;6919;52.344;14.518;2023-03-21T01:17:04;100748.13;;;8.76;100.00
13695;BME280;6919;52.344;14.518;2023-03-21T01:19:32;100749.53;;;8.80;100.00
13695;BME280;6919;52.344;14.518;2023-03-21T01:22:17;100752.75;;;8.83;100.00
13695;BME280;6919;52.344;14.518;2023-03-21T01:24:45;100747.84;;;8.98;100.00
13695;BME280;6919;52.344;14.518;2023-03-21T01:27:26;100745.59;;;8.93;100.00
13695;BME280;6919;52.344;14.518;2023-03-21T01:29:54;100746.72;;;8.91;100.00
13695;BME280;6919;52.344;14.518;2023-03-21T01:32:25;100746.03;;;8.98;100.00
13695;BME280;6919;52.344;14.518;2023-03-21T01:34:53;100750.66;;;8.96;100.00
13695;BME280;6919;52.344;14.518;2023-03-21T01:37:21;100751.50;;;8.97;100.00
13695;BME280;6919;52.344;14.518;2023-03-21T01:39:52;100749.25;;;8.92;100.00
13695;BME280;6919;52.344;14.518;2023-03-21T01:42:20;100749.81;;;8.96;100.00
13695;BME280;6919;52.344;14.518;2023-03-21T01:44:57;100750.53;;;8.88;100.00
13695;BME280;6919;52.344;14.518;2023-03-21T01:47:27;100748.53;;;8.81;100.00
13695;BME280;6919;52.344;14.518;2023-03-21T01:49:58;100739.69;;;8.90;100.00
13695;BME280;6919;52.344;14.518;2023-03-21T01:52:33;100747.00;;;8.88;100.00
13695;BME280;6919;52.344;14.518;2023-03-21T01:55:09;100745.88;;;8.81;100.00
13695;BME280;6919;52.344;14.518;2023-03-21T01:57:45;100745.28;;;8.68;100.00
13695;BME280;6919;52.344;14.518;2023-03-21T02:00:31;100740.91;;;8.86;100.00
13695;BME280;6919;52.344;14.518;2023-03-21T02:03:05;100740.25;;;8.74;100.00
13695;BME280;6919;52.344;14.518;2023-03-21T02:05:51;100744.13;;;8.51;100.00
13695;BME280;6919;52.344;14.518;2023-03-21T02:08:22;100735.97;;;8.62;100.00
13695;BME280;6919;52.344;14.518;2023-03-21T02:11:05;100745.97;;;8.51;100.00
13695;BME280;6919;52.344;14.518;2023-03-21T02:13:34;100747.78;;;8.41;100.00
13695;BME280;6919;52.344;14.518;2023-03-21T02:16:12;100750.72;;;8.38;100.00
13695;BME280;6919;52.344;14.518;2023-03-21T02:18:52;100746.50;;;8.45;100.00
13695;BME280;6919;52.344;14.518;2023-03-21T02:22:09;100743.97;;;8.43;100.00
13695;BME280;6919;52.344;14.518;2023-03-21T02:25:21;100741.81;;;8.28;100.00
13695;BME280;6919;52.344;14.518;2023-03-21T02:27:58;100748.72;;;8.30;100.00
13695;BME280;6919;52.344;14.518;2023-03-21T02:37:20;100754.47;;;8.26;100.00
13695;BME280;6919;52.344;14.518;2023-03-21T02:40:09;100749.28;;;8.24;100.00
13695;BME280;6919;52.344;14.518;2023-03-21T02:42:53;100753.56;;;8.16;100.00
13695;BME280;6919;52.344;14.518;2023-03-21T02:45:37;100751.22;;;8.22;100.00
13695;BME280;6919;52.344;14.518;2023-03-21T02:48:11;100751.59;;;8.18;100.00
13695;BME280;6919;52.344;14.518;2023-03-21T02:50:59;100752.28;;;8.10;100.00
13695;BME280;6919;52.344;14.518;2023-03-21T02:53:33;100745.94;;;8.11;100.00
13695;BME280;6919;52.344;14.518;2023-03-21T02:56:07;100746.75;;;8.23;100.00
13695;BME280;6919;52.344;14.518;2023-03-21T02:58:38;100751.44;;;8.10;100.00
13695;BME280;6919;52.344;14.518;2023-03-21T03:01:08;100748.88;;;8.08;100.00
13695;BME280;6919;52.344;14.518;2023-03-21T03:03:36;100752.69;;;8.06;100.00
13695;BME280;6919;52.344;14.518;2023-03-21T03:06:15;100743.69;;;8.07;100.00
13695;BME280;6919;52.344;14.518;2023-03-21T03:09:12;100747.78;;;8.11;100.00
13695;BME280;6919;52.344;14.518;2023-03-21T03:11:50;100750.91;;;8.16;100.00
13695;BME280;6919;52.344;14.518;2023-03-21T03:14:49;100754.97;;;8.10;100.00
13695;BME280;6919;52.344;14.518;2023-03-21T03:17:46;100756.25;;;8.16;100.00
13695;BME280;6919;52.344;14.518;2023-03-21T03:20:36;100755.44;;;8.25;100.00
13695;BME280;6919;52.344;14.518;2023-03-21T03:23:23;100750.03;;;8.15;100.00
13695;BME280;6919;52.344;14.518;2023-03-21T03:26:01;100742.13;;;8.04;100.00
13695;BME280;6919;52.344;14.518;2023-03-21T03:28:37;100746.47;;;8.05;100.00
13695;BME280;6919;52.344;14.518;2023-03-21T03:31:09;100750.53;;;8.00;100.00
13695;BME280;6919;52.344;14.518;2023-03-21T03:33:45;100742.22;;;7.93;100.00
13695;BME280;6919;52.344;14.518;2023-03-21T03:36:17;100749.66;;;7.90;100.00
13695;BME280;6919;52.344;14.518;2023-03-21T03:39:01;100755.34;;;8.06;100.00
13695;BME280;6919;52.344;14.518;2023-03-21T03:41:39;100747.06;;;8.09;100.00
13695;BME280;6919;52.344;14.518;2023-03-21T03:44:28;100753.50;;;8.06;100.00
13695;BME280;6919;52.344;14.518;2023-03-21T03:47:02;100752.22;;;8.01;100.00
13695;BME280;6919;52.344;14.518;2023-03-21T03:49:38;100746.19;;;7.99;100.00
13695;BME280;6919;52.344;14.518;2023-03-21T03:52:16;100745.19;;;8.00;100.00
13695;BME280;6919;52.344;14.518;2023-03-21T03:54:48;100746.44;;;7.96;100.00
13695;BME280;6919;52.344;14.518;2023-03-21T03:57:19;100738.41;;;7.86;100.00
13695;BME280;6919;52.344;14.518;2023-03-21T03:59:48;100753.03;;;7.92;100.00
13695;BME280;6919;52.344;14.518;2023-03-21T04:02:17;100748.25;;;7.95;100.00
13695;BME280;6919;52.344;14.518;2023-03-21T04:04:46;100744.44;;;7.88;100.00
13695;BME280;6919;52.344;14.518;2023-03-21T04:07:20;100757.06;;;7.77;100.00
13695;BME280;6919;52.344;14.518;2023-03-21T04:09:48;100752.22;;;7.71;100.00
13695;BME280;6919;52.344;14.518;2023-03-21T04:12:16;100760.63;;;7.66;100.00
13695;BME280;6919;52.344;14.518;2023-03-21T04:14:46;100754.63;;;7.74;100.00
13695;BME280;6919;52.344;14.518;2023-03-21T04:17:15;100763.34;;;7.76;100.00
13695;BME280;6919;52.344;14.518;2023-03-21T04:19:43;100752.66;;;7.76;100.00
13695;BME280;6919;52.344;14.518;2023-03-21T04:22:12;100758.81;;;7.67;100.00
13695;BME280;6919;52.344;14.518;2023-03-21T04:24:41;100760.63;;;7.66;100.00
13695;BME280;6919;52.344;14.518;2023-03-21T04:27:09;100757.44;;;7.72;100.00
13695;BME280;6919;52.344;14.518;2023-03-21T04:29:39;100752.94;;;7.73;100.00
13695;BME280;6919;52.344;14.518;2023-03-21T04:32:09;100751.78;;;7.66;100.00
13695;BME280;6919;52.344;14.518;2023-03-21T04:34:42;100755.56;;;7.63;100.00
13695;BME280;6919;52.344;14.518;2023-03-21T04:37:16;100753.13;;;7.60;100.00
13695;BME280;6919;52.344;14.518;2023-03-21T04:39:45;100750.09;;;7.65;100.00
13695;BME280;6919;52.344;14.518;2023-03-21T04:42:15;100753.59;;;7.65;100.00
13695;BME280;6919;52.344;14.518;2023-03-21T04:44:44;100753.72;;;7.64;100.00
13695;BME280;6919;52.344;14.518;2023-03-21T04:47:15;100757.78;;;7.58;100.00
13695;BME280;6919;52.344;14.518;2023-03-21T04:49:46;100759.47;;;7.59;100.00
13695;BME280;6919;52.344;14.518;2023-03-21T04:52:15;100762.31;;;7.67;100.00
13695;BME280;6919;52.344;14.518;2023-03-21T04:54:43;100760.41;;;7.79;100.00
13695;BME280;6919;52.344;14.518;2023-03-21T04:57:11;100758.81;;;7.67;100.00
13695;BME280;6919;52.344;14.518;2023-03-21T04:59:40;100764.34;;;7.75;100.00
13695;BME280;6919;52.344;14.518;2023-03-21T05:02:08;100771.94;;;7.79;100.00
13695;BME280;6919;52.344;14.518;2023-03-21T05:04:38;100766.13;;;7.74;100.00
13695;BME280;6919;52.344;14.518;2023-03-21T05:07:06;100769.94;;;7.72;100.00
13695;BME280;6919;52.344;14.518;2023-03-21T05:09:35;100770.66;;;7.74;100.00
13695;BME280;6919;52.344;14.518;2023-03-21T05:12:04;100763.75;;;7.71;100.00
13695;BME280;6919;52.344;14.518;2023-03-21T05:14:32;100774.22;;;7.63;100.00
13695;BME280;6919;52.344;14.518;2023-03-21T05:17:00;100765.84;;;7.68;100.00
13695;BME280;6919;52.344;14.518;2023-03-21T05:19:31;100768.25;;;7.71;100.00
13695;BME280;6919;52.344;14.518;2023-03-21T05:22:06;100769.78;;;7.73;100.00
13695;BME280;6919;52.344;14.518;2023-03-21T05:24:35;100772.50;;;7.83;100.00
13695;BME280;6919;52.344;14.518;2023-03-21T05:27:05;100764.59;;;7.72;100.00
13695;BME280;6919;52.344;14.518;2023-03-21T05:29:33;100781.59;;;7.71;100.00
13695;BME280;6919;52.344;14.518;2023-03-21T05:32:02;100783.66;;;7.67;100.00
13695;BME280;6919;52.344;14.518;2023-03-21T05:34:30;100780.72;;;7.70;100.00
13695;BME280;6919;52.344;14.518;2023-03-21T05:36:58;100783.22;;;7.62;100.00
13695;BME280;6919;52.344;14.518;2023-03-21T05:39:28;100790.16;;;7.74;100.00
13695;BME280;6919;52.344;14.518;2023-03-21T05:41:56;100793.94;;;7.72;100.00
13695;BME280;6919;52.344;14.518;2023-03-21T05:44:24;100783.53;;;7.69;100.00
13695;BME280;6919;52.344;14.518;2023-03-21T05:46:53;100788.16;;;7.67;100.00
13695;BME280;6919;52.344;14.518;2023-03-21T05:49:21;100782.28;;;7.73;100.00
13695;BME280;6919;52.344;14.518;2023-03-21T05:51:50;100787.63;;;7.73;100.00
13695;BME280;6919;52.344;14.518;2023-03-21T05:54:18;100785.50;;;7.67;100.00
13695;BME280;6919;52.344;14.518;2023-03-21T05:56:48;100792.13;;;7.72;100.00
13695;BME280;6919;52.344;14.518;2023-03-21T05:59:16;100786.97;;;7.80;100.00
13695;BME280;6919;52.344;14.518;2023-03-21T06:01:44;100795.06;;;7.69;100.00
13695;BME280;6919;52.344;14.518;2023-03-21T06:04:13;100792.84;;;7.74;100.00
13695;BME280;6919;52.344;14.518;2023-03-21T06:06:41;100792.56;;;7.77;100.00
13695;BME280;6919;52.344;14.518;2023-03-21T06:09:09;100799.47;;;7.80;100.00
13695;BME280;6919;52.344;14.518;2023-03-21T06:11:49;100794.94;;;7.71;100.00
13695;BME280;6919;52.344;14.518;2023-03-21T06:14:20;100802.81;;;7.72;100.00
13695;BME280;6919;52.344;14.518;2023-03-21T06:16:48;100799.16;;;7.73;100.00
13695;BME280;6919;52.344;14.518;2023-03-21T06:19:16;100794.13;;;7.80;100.00
13695;BME280;6919;52.344;14.518;2023-03-21T06:21:45;100793.59;;;7.86;100.00
13695;BME280;6919;52.344;14.518;2023-03-21T06:24:14;100801.88;;;7.83;100.00
13695;BME280;6919;52.344;14.518;2023-03-21T06:26:44;100797.53;;;7.82;100.00
13695;BME280;6919;52.344;14.518;2023-03-21T06:29:14;100800.06;;;7.83;100.00
13695;BME280;6919;52.344;14.518;2023-03-21T06:31:42;100803.28;;;7.87;100.00
13695;BME280;6919;52.344;14.518;2023-03-21T06:34:10;100801.50;;;7.87;100.00
13695;BME280;6919;52.344;14.518;2023-03-21T06:39:07;100802.22;;;7.89;100.00
13695;BME280;6919;52.344;14.518;2023-03-21T06:41:36;100801.09;;;7.92;100.00
13695;BME280;6919;52.344;14.518;2023-03-21T06:44:05;100807.50;;;8.10;100.00
13695;BME280;6919;52.344;14.518;2023-03-21T06:46:35;100801.50;;;8.17;100.00
13695;BME280;6919;52.344;14.518;2023-03-21T06:49:03;100800.84;;;8.25;100.00
13695;BME280;6919;52.344;14.518;2023-03-21T06:51:32;100804.41;;;8.35;100.00
13695;BME280;6919;52.344;14.518;2023-03-21T06:54:00;100799.38;;;8.11;100.00
13695;BME280;6919;52.344;14.518;2023-03-21T06:56:29;100804.44;;;8.14;100.00
13695;BME280;6919;52.344;14.518;2023-03-21T06:58:57;100800.94;;;8.44;100.00
13695;BME280;6919;52.344;14.518;2023-03-21T07:01:25;100810.66;;;8.54;100.00
13695;BME280;6919;52.344;14.518;2023-03-21T07:03:58;100808.50;;;8.39;100.00
13695;BME280;6919;52.344;14.518;2023-03-21T07:06:26;100802.41;;;8.27;100.00
13695;BME280;6919;52.344;14.518;2023-03-21T07:08:55;100805.59;;;8.61;100.00
13695;BME280;6919;52.344;14.518;2023-03-21T07:11:24;100802.69;;;8.73;100.00
13695;BME280;6919;52.344;14.518;2023-03-21T07:13:53;100801.16;;;8.80;100.00
13695;BME280;6919;52.344;14.518;2023-03-21T07:16:22;100800.34;;;8.89;100.00
13695;BME280;6919;52.344;14.518;2023-03-21T07:18:51;100807.22;;;8.82;100.00
13695;BME280;6919;52.344;14.518;2023-03-21T07:21:21;100804.56;;;8.92;100.00
13695;BME280;6919;52.344;14.518;2023-03-21T07:23:49;100803.59;;;9.02;100.00
13695;BME280;6919;52.344;14.518;2023-03-21T07:26:17;100801.19;;;8.99;100.00
13695;BME280;6919;52.344;14.518;2023-03-21T07:28:46;100804.00;;;9.27;100.00
13695;BME280;6919;52.344;14.518;2023-03-21T07:31:17;100801.34;;;9.27;100.00
13695;BME280;6919;52.344;14.518;2023-03-21T07:33:46;100803.88;;;9.19;100.00
13695;BME280;6919;52.344;14.518;2023-03-21T07:36:15;100810.63;;;9.13;100.00
13695;BME280;6919;52.344;14.518;2023-03-21T07:38:45;100810.03;;;9.00;100.00
13695;BME280;6919;52.344;14.518;2023-03-21T07:41:13;100814.56;;;8.90;100.00
13695;BME280;6919;52.344;14.518;2023-03-21T07:43:47;100810.63;;;9.23;100.00
13695;BME280;6919;52.344;14.518;2023-03-21T07:46:15;100812.56;;;9.78;100.00
13695;BME280;6919;52.344;14.518;2023-03-21T07:48:44;100807.75;;;9.81;100.00
13695;BME280;6919;52.344;14.518;2023-03-21T07:51:12;100809.53;;;10.09;100.00
13695;BME280;6919;52.344;14.518;2023-03-21T07:53:44;100806.81;;;9.63;100.00
13695;BME280;6919;52.344;14.518;2023-03-21T07:56:15;100808.38;;;9.66;100.00
13695;BME280;6919;52.344;14.518;2023-03-21T07:58:43;100804.16;;;9.44;100.00
13695;BME280;6919;52.344;14.518;2023-03-21T08:01:11;100807.16;;;9.97;100.00
13695;BME280;6919;52.344;14.518;2023-03-21T08:03:40;100812.78;;;10.13;100.00
13695;BME280;6919;52.344;14.518;2023-03-21T08:06:10;100802.94;;;9.94;100.00
13695;BME280;6919;52.344;14.518;2023-03-21T08:08:38;100800.72;;;9.80;100.00
13695;BME280;6919;52.344;14.518;2023-03-21T08:11:10;100796.53;;;10.24;100.00
13695;BME280;6919;52.344;14.518;2023-03-21T08:13:39;100800.09;;;10.42;100.00
13695;BME280;6919;52.344;14.518;2023-03-21T08:16:08;100808.69;;;10.72;100.00
13695;BME280;6919;52.344;14.518;2023-03-21T08:18:36;100802.81;;;10.86;100.00
13695;BME280;6919;52.344;14.518;2023-03-21T08:21:06;100812.59;;;10.78;100.00
13695;BME280;6919;52.344;14.518;2023-03-21T08:23:35;100812.69;;;10.86;100.00
13695;BME280;6919;52.344;14.518;2023-03-21T08:26:04;100807.59;;;10.65;100.00
13695;BME280;6919;52.344;14.518;2023-03-21T08:28:35;100817.09;;;11.04;100.00
13695;BME280;6919;52.344;14.518;2023-03-21T08:31:07;100816.94;;;11.06;100.00
13695;BME280;6919;52.344;14.518;2023-03-21T08:33:36;100809.28;;;11.28;100.00
13695;BME280;6919;52.344;14.518;2023-03-21T08:36:05;100818.44;;;11.18;100.00
13695;BME280;6919;52.344;14.518;2023-03-21T08:38:34;100807.28;;;10.95;100.00
13695;BME280;6919;52.344;14.518;2023-03-21T08:41:03;100810.03;;;10.59;100.00
13695;BME280;6919;52.344;14.518;2023-03-21T08:43:31;100807.69;;;10.73;100.00
13695;BME280;6919;52.344;14.518;2023-03-21T08:46:01;100810.47;;;10.27;100.00
13695;BME280;6919;52.344;14.518;2023-03-21T08:48:30;100809.97;;;10.41;100.00
13695;BME280;6919;52.344;14.518;2023-03-21T08:51:00;100813.66;;;10.40;100.00
13695;BME280;6919;52.344;14.518;2023-03-21T08:53:28;100815.25;;;10.60;100.00
13695;BME280;6919;52.344;14.518;2023-03-21T08:55:56;100810.06;;;10.76;100.00
13695;BME280;6919;52.344;14.518;2023-03-21T08:58:25;100814.50;;;10.41;100.00
13695;BME280;6919;52.344;14.518;2023-03-21T09:00:54;100816.94;;;10.61;100.00
13695;BME280;6919;52.344;14.518;2023-03-21T09:03:24;100810.84;;;10.42;100.00
13695;BME280;6919;52.344;14.518;2023-03-21T09:05:53;100816.91;;;10.44;100.00
13695;BME280;6919;52.344;14.518;2023-03-21T09:08:22;100805.56;;;10.77;100.00
13695;BME280;6919;52.344;14.518;2023-03-21T09:10:53;100808.81;;;11.15;100.00
13695;BME280;6919;52.344;14.518;2023-03-21T09:13:22;100811.38;;;11.34;100.00
13695;BME280;6919;52.344;14.518;2023-03-21T09:15:51;100806.91;;;11.43;100.00
13695;BME280;6919;52.344;14.518;2023-03-21T09:18:20;100816.22;;;10.86;100.00
13695;BME280;6919;52.344;14.518;2023-03-21T09:21:09;100810.66;;;10.97;100.00
13695;BME280;6919;52.344;14.518;2023-03-21T09:23:41;100806.91;;;11.25;100.00
13695;BME280;6919;52.344;14.518;2023-03-21T09:26:11;100800.69;;;11.42;100.00
13695;BME280;6919;52.344;14.518;2023-03-21T09:28:40;100796.56;;;11.65;100.00
13695;BME280;6919;52.344;14.518;2023-03-21T09:31:09;100811.41;;;11.60;100.00
13695;BME280;6919;52.344;14.518;2023-03-21T09:33:38;100803.13;;;11.53;100.00
13695;BME280;6919;52.344;14.518;2023-03-21T09:36:10;100800.84;;;11.58;100.00
13695;BME280;6919;52.344;14.518;2023-03-21T09:38:42;100813.00;;;11.62;100.00
13695;BME280;6919;52.344;14.518;2023-03-21T09:41:39;100803.31;;;11.95;100.00
13695;BME280;6919;52.344;14.518;2023-03-21T09:44:23;100800.22;;;11.29;100.00
13695;BME280;6919;52.344;14.518;2023-03-21T09:47:03;100800.00;;;11.58;100.00
13695;BME280;6919;52.344;14.518;2023-03-21T09:49:42;100792.63;;;11.77;100.00
13695;BME280;6919;52.344;14.518;2023-03-21T09:52:21;100796.25;;;12.20;100.00
13695;BME280;6919;52.344;14.518;2023-03-21T09:54:52;100792.13;;;12.08;100.00
13695;BME280;6919;52.344;14.518;2023-03-21T09:57:30;100793.88;;;11.91;100.00
13695;BME280;6919;52.344;14.518;2023-03-21T10:00:05;100784.28;;;12.14;100.00
13695;BME280;6919;52.344;14.518;2023-03-21T10:02:41;100794.19;;;12.14;100.00
13695;BME280;6919;52.344;14.518;2023-03-21T10:05:19;100791.56;;;11.96;100.00
13695;BME280;6919;52.344;14.518;2023-03-21T10:07:57;100792.28;;;12.40;100.00
13695;BME280;6919;52.344;14.518;2023-03-21T10:10:35;100795.47;;;12.69;100.00
13695;BME280;6919;52.344;14.518;2023-03-21T10:13:13;100789.38;;;12.25;100.00
13695;BME280;6919;52.344;14.518;2023-03-21T10:15:42;100795.94;;;12.23;100.00
13695;BME280;6919;52.344;14.518;2023-03-21T10:18:18;100789.28;;;12.43;100.00
13695;BME280;6919;52.344;14.518;2023-03-21T10:20:49;100790.63;;;12.39;100.00
13695;BME280;6919;52.344;14.518;2023-03-21T10:23:25;100790.53;;;12.56;100.00
13695;BME280;6919;52.344;14.518;2023-03-21T10:25:57;100793.78;;;12.34;100.00
13695;BME280;6919;52.344;14.518;2023-03-21T10:28:31;100795.25;;;12.62;100.00
13695;BME280;6919;52.344;14.518;2023-03-21T10:31:19;100789.03;;;11.34;100.00
13695;BME280;6919;52.344;14.518;2023-03-21T10:33:53;100794.56;;;11.67;100.00
13695;BME280;6919;52.344;14.518;2023-03-21T10:36:25;100790.19;;;12.26;100.00
13695;BME280;6919;52.344;14.518;2023-03-21T10:39:02;100791.47;;;12.06;100.00
13695;BME280;6919;52.344;14.518;2023-03-21T10:41:32;100793.09;;;12.24;100.00
13695;BME280;6919;52.344;14.518;2023-03-21T10:44:08;100791.66;;;11.86;100.00
13695;BME280;6919;52.344;14.518;2023-03-21T10:46:37;100786.25;;;12.38;100.00
13695;BME280;6919;52.344;14.518;2023-03-21T10:49:07;100794.38;;;12.54;100.00
13695;BME280;6919;52.344;14.518;2023-03-21T10:51:38;100789.94;;;12.03;100.00
13695;BME280;6919;52.344;14.518;2023-03-21T10:54:13;100791.78;;;12.36;100.00
13695;BME280;6919;52.344;14.518;2023-03-21T10:56:51;100782.72;;;12.79;100.00
13695;BME280;6919;52.344;14.518;2023-03-21T10:59:23;100777.34;;;12.79;100.00
13695;BME280;6919;52.344;14.518;2023-03-21T11:01:55;100784.34;;;12.30;100.00
13695;BME280;6919;52.344;14.518;2023-03-21T11:04:26;100772.03;;;12.53;100.00
13695;BME280;6919;52.344;14.518;2023-03-21T11:07:00;100783.00;;;12.01;100.00
13695;BME280;6919;52.344;14.518;2023-03-21T11:09:47;100771.47;;;11.82;100.00
13695;BME280;6919;52.344;14.518;2023-03-21T11:12:29;100774.97;;;12.34;100.00
13695;BME280;6919;52.344;14.518;2023-03-21T11:15:25;100772.22;;;12.60;100.00
13695;BME280;6919;52.344;14.518;2023-03-21T11:17:54;100764.69;;;12.71;100.00
13695;BME280;6919;52.344;14.518;2023-03-21T11:20:23;100773.63;;;12.72;100.00
13695;BME280;6919;52.344;14.518;2023-03-21T11:22:54;100759.84;;;12.83;100.00
13695;BME280;6919;52.344;14.518;2023-03-21T11:25:34;100761.09;;;13.04;100.00
13695;BME280;6919;52.344;14.518;2023-03-21T11:28:08;100755.50;;;12.98;100.00
13695;BME280;6919;52.344;14.518;2023-03-21T11:30:50;100759.41;;;13.11;100.00
13695;BME280;6919;52.344;14.518;2023-03-21T11:33:22;100754.03;;;13.19;100.00
13695;BME280;6919;52.344;14.518;2023-03-21T11:36:02;100759.16;;;12.81;100.00
13695;BME280;6919;52.344;14.518;2023-03-21T11:38:35;100754.25;;;12.19;100.00
13695;BME280;6919;52.344;14.518;2023-03-21T11:41:06;100749.81;;;12.10;100.00
13695;BME280;6919;52.344;14.518;2023-03-21T11:43:36;100747.66;;;12.55;100.00
13695;BME280;6919;52.344;14.518;2023-03-21T11:46:08;100746.84;;;12.21;100.00
13695;BME280;6919;52.344;14.518;2023-03-21T11:48:40;100743.19;;;12.30;100.00
13695;BME280;6919;52.344;14.518;2023-03-21T11:51:25;100743.84;;;12.24;100.00
13695;BME280;6919;52.344;14.518;2023-03-21T11:54:05;100742.06;;;12.40;100.00
13695;BME280;6919;52.344;14.518;2023-03-21T11:56:43;100740.13;;;12.25;100.00
13695;BME280;6919;52.344;14.518;2023-03-21T11:59:30;100737.81;;;12.30;100.00
13695;BME280;6919;52.344;14.518;2023-03-21T12:02:20;100739.03;;;12.43;100.00
13695;BME280;6919;52.344;14.518;2023-03-21T12:04:59;100728.50;;;12.16;100.00
13695;BME280;6919;52.344;14.518;2023-03-21T12:07:48;100727.25;;;11.69;100.00
13695;BME280;6919;52.344;14.518;2023-03-21T12:10:41;100721.34;;;12.33;100.00
13695;BME280;6919;52.344;14.518;2023-03-21T12:13:32;100725.69;;;12.83;100.00
13695;BME280;6919;52.344;14.518;2023-03-21T12:16:21;100715.34;;;13.20;100.00
13695;BME280;6919;52.344;14.518;2023-03-21T12:19:10;100717.16;;;13.52;100.00
13695;BME280;6919;52.344;14.518;2023-03-21T12:21:52;100712.81;;;13.19;100.00
13695;BME280;6919;52.344;14.518;2023-03-21T12:24:30;100715.78;;;13.72;100.00
13695;BME280;6919;52.344;14.518;2023-03-21T12:27:11;100705.91;;;13.48;100.00
13695;BME280;6919;52.344;14.518;2023-03-21T12:29:58;100702.38;;;13.24;100.00
13695;BME280;6919;52.344;14.518;2023-03-21T12:32:50;100710.78;;;13.61;100.00
13695;BME280;6919;52.344;14.518;2023-03-21T12:35:48;100704.16;;;13.71;100.00
13695;BME280;6919;52.344;14.518;2023-03-21T12:38:26;100707.38;;;13.67;100.00
13695;BME280;6919;52.344;14.518;2023-03-21T12:41:27;100700.03;;;13.29;100.00
13695;BME280;6919;52.344;14.518;2023-03-21T12:44:03;100699.19;;;13.20;100.00
13695;BME280;6919;52.344;14.518;2023-03-21T12:46:40;100697.81;;;13.32;100.00
13695;BME280;6919;52.344;14.518;2023-03-21T12:49:17;100693.13;;;13.34;100.00
13695;BME280;6919;52.344;14.518;2023-03-21T12:51:56;100691.94;;;13.21;100.00
13695;BME280;6919;52.344;14.518;2023-03-21T12:54:32;100686.38;;;13.14;100.00
13695;BME280;6919;52.344;14.518;2023-03-21T12:57:08;100690.09;;;13.13;100.00
13695;BME280;6919;52.344;14.518;2023-03-21T12:59:50;100683.19;;;13.19;100.00
13695;BME280;6919;52.344;14.518;2023-03-21T13:02:30;100679.84;;;13.01;100.00
13695;BME280;6919;52.344;14.518;2023-03-21T13:05:09;100673.56;;;12.92;100.00
13695;BME280;6919;52.344;14.518;2023-03-21T13:07:44;100676.63;;;13.13;100.00
13695;BME280;6919;52.344;14.518;2023-03-21T13:10:17;100672.25;;;13.28;100.00
13695;BME280;6919;52.344;14.518;2023-03-21T13:13:00;100671.81;;;12.51;100.00
13695;BME280;6919;52.344;14.518;2023-03-21T13:16:08;100662.53;;;12.30;100.00
13695;BME280;6919;52.344;14.518;2023-03-21T13:18:58;100661.50;;;12.23;100.00
13695;BME280;6919;52.344;14.518;2023-03-21T13:21:50;100659.22;;;12.68;100.00
13695;BME280;6919;52.344;14.518;2023-03-21T13:24:31;100655.53;;;12.61;100.00
13695;BME280;6919;52.344;14.518;2023-03-21T13:27:04;100650.34;;;12.75;100.00
13695;BME280;6919;52.344;14.518;2023-03-21T13:29:44;100640.41;;;12.68;100.00